Hunt City, Illinois
Current Conditions -  °F | °C
As of 10:15 PM on Monday 22 Dec 2014 (Local Time) from KRSV Reporting Station
Light Rain Light Rain  
Wind Chill: 44°   Ceiling: 1300
Heat Index: 49°   Visibility: 7mi
Dew Point: 47°   Wind: 12mph
Humidity: 93%   Direction: 160°SSE
Pressure: 29.63"   Gusts: NA
Location:  38.9751°N, 88.0102°W
Report Text: KRSV 230415Z AUTO 16010KT 7SM -RA OVC013 09/08 A2963 RMK AO2 P0001 T00920081
Loading
Personal Weather Stations






























Interactive Weather Map New forecast layout! Learn more

10-Day Weather Forecast

Advertisements
Track Severe Weather on mobile